createdAt,value
2019-03-12T00:00:38.554Z,13.73
2019-03-12T00:03:07.343Z,15.90
2019-03-12T00:05:36.110Z,18.47
2019-03-12T00:08:05.323Z,12.63
2019-03-12T00:10:34.119Z,17.13
2019-03-12T00:13:02.897Z,16.37
2019-03-12T00:15:31.737Z,12.73
2019-03-12T00:18:00.509Z,23.60
2019-03-12T00:20:29.443Z,20.43
2019-03-12T00:22:58.179Z,18.10
2019-03-12T00:25:26.966Z,17.87
2019-03-12T00:27:55.746Z,15.90
2019-03-12T00:30:24.566Z,23.30
2019-03-12T00:32:55.722Z,13.00
2019-03-12T00:35:22.200Z,19.93
2019-03-12T00:37:51.124Z,18.90
2019-03-12T00:40:19.942Z,13.90
2019-03-12T00:42:48.778Z,25.83
2019-03-12T00:45:17.534Z,20.53
2019-03-12T00:47:47.686Z,14.63
2019-03-12T00:50:16.537Z,15.77
2019-03-12T00:52:45.340Z,18.47
2019-03-12T00:55:14.126Z,29.50
2019-03-12T00:57:43.065Z,18.83
2019-03-12T01:00:13.464Z,23.20
2019-03-12T01:02:42.239Z,22.10
2019-03-12T01:05:11.068Z,22.80
2019-03-12T01:07:39.835Z,25.33
2019-03-12T01:10:10.036Z,21.80
2019-03-12T01:12:38.823Z,39.90
2019-03-12T01:15:08.151Z,24.30
2019-03-12T01:17:36.952Z,22.20
2019-03-12T01:20:06.786Z,16.40
2019-03-12T01:22:35.569Z,19.23
2019-03-12T01:25:04.438Z,26.27
2019-03-12T01:27:33.214Z,23.77
2019-03-12T01:30:02.000Z,15.43
2019-03-12T01:32:31.893Z,20.87
2019-03-12T01:35:00.687Z,21.80
2019-03-12T01:37:29.463Z,27.00
2019-03-12T01:39:58.299Z,17.07
2019-03-12T01:42:27.091Z,22.93
2019-03-12T01:44:55.863Z,16.80
2019-03-12T01:47:25.553Z,27.83
2019-03-12T01:49:56.215Z,27.03
2019-03-12T01:52:24.986Z,24.50
2019-03-12T01:54:53.763Z,24.07
2019-03-12T01:57:22.595Z,24.67
2019-03-12T01:59:51.384Z,32.43
2019-03-12T02:02:20.302Z,20.33
2019-03-12T02:04:49.089Z,25.77
2019-03-12T02:07:17.919Z,21.33
2019-03-12T02:09:46.786Z,18.90
2019-03-12T02:12:15.627Z,26.80
2019-03-12T02:14:44.511Z,29.43
2019-03-12T02:17:13.395Z,19.47
2019-03-12T02:19:42.226Z,24.10
2019-03-12T02:22:12.837Z,19.20
2019-03-12T02:24:52.002Z,23.73
2019-03-12T02:27:10.695Z,25.07
2019-03-12T02:29:39.514Z,33.33
2019-03-12T02:32:08.304Z,21.67
2019-03-12T02:34:37.862Z,27.00
2019-03-12T02:37:07.597Z,24.40
2019-03-12T02:39:37.007Z,26.47
2019-03-12T02:42:05.959Z,28.33
2019-03-12T02:44:34.769Z,20.17
2019-03-12T02:47:03.562Z,25.47
2019-03-12T02:49:33.276Z,26.13
2019-03-12T02:52:02.170Z,27.73
2019-03-12T02:54:30.954Z,20.67
2019-03-12T02:56:59.784Z,26.20
2019-03-12T02:59:28.563Z,24.20
2019-03-12T03:01:57.348Z,25.97
2019-03-12T03:04:26.252Z,20.50
2019-03-12T03:07:03.247Z,22.03
2019-03-12T03:09:32.060Z,28.27
2019-03-12T03:12:00.939Z,21.90
2019-03-12T03:14:35.557Z,20.40
2019-03-12T03:17:05.860Z,26.60
2019-03-12T03:19:34.640Z,16.87
2019-03-12T03:22:03.432Z,19.83
2019-03-12T03:24:32.204Z,25.10
2019-03-12T03:27:01.002Z,18.27
2019-03-12T03:29:29.926Z,16.80
2019-03-12T03:31:58.773Z,28.20
2019-03-12T03:34:30.729Z,29.73
2019-03-12T03:36:59.536Z,21.13
2019-03-12T03:39:28.325Z,21.27
2019-03-12T03:41:57.126Z,28.33
2019-03-12T03:44:25.939Z,18.43
2019-03-12T03:46:54.812Z,20.00
2019-03-12T03:49:23.691Z,21.67
2019-03-12T03:51:52.394Z,23.80
2019-03-12T03:54:21.257Z,27.13
2019-03-12T03:56:50.047Z,17.67
2019-03-12T03:59:18.837Z,20.90
2019-03-12T04:01:47.637Z,24.43
2019-03-12T04:04:16.434Z,24.93
2019-03-12T04:06:45.882Z,24.77
2019-03-12T04:09:14.673Z,23.13
2019-03-12T04:11:43.556Z,20.60
2019-03-12T04:14:12.346Z,22.97
2019-03-12T04:16:41.138Z,28.27
2019-03-12T04:19:09.975Z,25.50
2019-03-12T04:21:38.747Z,24.00
2019-03-12T04:24:07.611Z,26.77
2019-03-12T04:26:37.730Z,20.83
2019-03-12T04:29:08.315Z,23.53
2019-03-12T04:31:42.854Z,25.67
2019-03-12T04:34:19.027Z,27.37
2019-03-12T04:36:50.408Z,23.67
2019-03-12T04:39:19.672Z,28.60
2019-03-12T04:41:48.485Z,25.30
2019-03-12T04:44:17.396Z,33.53
2019-03-12T04:46:46.192Z,31.87
2019-03-12T04:49:17.399Z,26.90
2019-03-12T04:52:04.383Z,32.23
2019-03-12T04:54:37.859Z,24.63
2019-03-12T04:57:06.637Z,38.53
2019-03-12T04:59:36.430Z,36.87
2019-03-12T05:02:05.239Z,36.70
2019-03-12T05:04:34.039Z,20.87
2019-03-12T05:07:02.849Z,28.47
2019-03-12T05:09:31.651Z,30.13
2019-03-12T05:12:00.488Z,27.80
2019-03-12T05:14:32.363Z,35.33
2019-03-12T05:17:06.341Z,31.00
2019-03-12T05:19:35.144Z,26.60
2019-03-12T05:22:03.990Z,36.97
2019-03-12T05:24:32.756Z,24.60
2019-03-12T05:27:01.548Z,32.67
2019-03-12T05:29:30.375Z,27.30
2019-03-12T05:31:59.238Z,24.03
2019-03-12T05:34:28.063Z,25.73
2019-03-12T05:36:57.445Z,49.57
2019-03-12T05:39:26.226Z,35.00
2019-03-12T05:41:55.022Z,29.17
2019-03-12T05:44:30.393Z,35.07
2019-03-12T05:46:59.291Z,28.30
2019-03-12T05:49:28.090Z,33.97
2019-03-12T05:51:56.869Z,35.57
2019-03-12T05:54:25.650Z,34.97
2019-03-12T05:56:54.546Z,31.37
2019-03-12T05:59:23.306Z,44.70
2019-03-12T06:01:52.151Z,37.00
2019-03-12T06:04:20.996Z,35.90
2019-03-12T06:06:49.806Z,33.67
2019-03-12T06:09:29.659Z,43.37
2019-03-12T06:11:47.391Z,36.67
2019-03-12T06:14:16.173Z,30.57
2019-03-12T06:16:45.064Z,26.60
2019-03-12T06:19:13.828Z,27.60
2019-03-12T06:21:42.667Z,27.47
2019-03-12T06:24:11.431Z,28.87
2019-03-12T06:26:40.248Z,27.87
2019-03-12T06:29:09.104Z,46.43
2019-03-12T06:32:00.338Z,30.00
2019-03-12T06:34:37.439Z,31.97
2019-03-12T06:37:16.404Z,38.90
2019-03-12T06:39:51.692Z,29.07
2019-03-12T06:42:25.803Z,26.43
2019-03-12T06:44:59.955Z,35.40
2019-03-12T06:47:34.786Z,23.07
2019-03-12T06:50:08.666Z,27.97
2019-03-12T06:52:44.581Z,30.80
2019-03-12T06:55:24.806Z,31.57
2019-03-12T06:58:12.078Z,39.27
2019-03-12T07:00:46.012Z,34.47
2019-03-12T07:03:20.160Z,39.50
2019-03-12T07:05:56.117Z,26.80
2019-03-12T07:08:29.093Z,26.70
2019-03-12T07:12:02.875Z,30.87
2019-03-12T07:14:41.988Z,24.13
2019-03-12T07:18:13.975Z,33.53
2019-03-12T07:22:52.102Z,25.73
2019-03-12T07:25:32.103Z,32.37
2019-03-12T07:28:09.007Z,27.90
2019-03-12T07:31:44.103Z,30.43
2019-03-12T07:34:20.086Z,30.20
2019-03-12T07:36:54.025Z,30.50
2019-03-12T07:39:28.291Z,32.60
2019-03-12T07:42:02.136Z,27.80
2019-03-12T07:44:35.089Z,24.37
2019-03-12T07:47:11.156Z,29.37
2019-03-12T07:49:45.943Z,26.87
2019-03-12T07:52:21.767Z,17.60
2019-03-12T07:55:26.125Z,21.00
2019-03-12T07:59:02.592Z,21.97
2019-03-12T08:01:39.532Z,23.10
2019-03-12T08:04:13.579Z,22.57
2019-03-12T08:06:56.622Z,26.33
2019-03-12T08:11:35.593Z,20.63
2019-03-12T08:14:10.360Z,27.07
2019-03-12T08:17:16.818Z,17.33
2019-03-12T08:19:49.770Z,29.10
2019-03-12T08:22:24.689Z,26.67
2019-03-12T08:25:28.907Z,16.73
2019-03-12T08:28:07.925Z,19.37
2019-03-12T08:31:44.791Z,18.57
2019-03-12T08:35:16.634Z,22.73
2019-03-12T08:37:54.849Z,15.43
2019-03-12T08:40:28.872Z,19.30
2019-03-12T08:43:01.822Z,12.67
2019-03-12T08:45:36.629Z,20.07
2019-03-12T08:48:12.637Z,18.67
2019-03-12T08:50:51.773Z,20.23
2019-03-12T08:53:25.262Z,16.60
2019-03-12T08:56:03.063Z,20.03
2019-03-12T08:59:41.923Z,24.83
2019-03-12T09:02:16.133Z,13.90
2019-03-12T09:06:53.006Z,18.03
2019-03-12T09:09:27.654Z,21.53
2019-03-12T09:12:18.877Z,19.07
2019-03-12T09:14:52.775Z,21.60
2019-03-12T09:17:28.720Z,15.33
2019-03-12T09:20:17.902Z,28.23
2019-03-12T09:22:53.951Z,27.10
2019-03-12T09:25:33.990Z,17.83
2019-03-12T09:28:10.111Z,21.20
2019-03-12T09:30:44.268Z,12.50
2019-03-12T09:33:19.079Z,12.07
2019-03-12T09:35:52.035Z,20.17
2019-03-12T09:38:27.062Z,12.70
2019-03-12T09:41:01.925Z,22.93
2019-03-12T09:45:38.780Z,17.83
2019-03-12T09:48:17.640Z,14.87
2019-03-12T09:50:50.605Z,17.87
2019-03-12T09:53:24.555Z,20.53
2019-03-12T09:55:57.520Z,17.17
2019-03-12T09:58:34.351Z,24.43
2019-03-12T10:01:40.955Z,18.23
2019-03-12T10:04:14.106Z,15.90
2019-03-12T10:06:53.060Z,18.27
2019-03-12T10:10:25.974Z,17.23
2019-03-12T10:13:00.154Z,16.63
2019-03-12T10:15:33.101Z,17.70
2019-03-12T10:18:10.020Z,31.40
2019-03-12T10:20:45.977Z,16.17
2019-03-12T10:23:23.957Z,24.30
2019-03-12T10:26:57.993Z,24.43
2019-03-12T10:29:35.051Z,20.77
2019-03-12T10:32:10.232Z,10.83
2019-03-12T10:35:16.070Z,19.33
2019-03-12T10:37:49.931Z,18.13
2019-03-12T10:40:27.723Z,19.17
2019-03-12T10:43:06.047Z,14.63
2019-03-12T10:46:41.841Z,14.23
2019-03-12T10:49:10.665Z,24.73
2019-03-12T10:51:39.452Z,12.47
2019-03-12T10:54:08.251Z,14.97
2019-03-12T10:56:37.084Z,17.13
2019-03-12T10:59:05.881Z,15.63
2019-03-12T11:01:35.450Z,15.07
2019-03-12T11:04:04.936Z,12.10
2019-03-12T11:06:34.655Z,14.50
2019-03-12T11:09:06.015Z,13.70
2019-03-12T11:11:34.800Z,18.17
2019-03-12T11:14:03.600Z,14.87
2019-03-12T11:16:32.408Z,19.57
2019-03-12T11:19:01.193Z,18.90
2019-03-12T11:21:30.071Z,17.17
2019-03-12T11:23:59.924Z,13.30
2019-03-12T11:26:29.712Z,11.17
2019-03-12T11:28:58.551Z,15.93
2019-03-12T11:31:27.327Z,12.03
2019-03-12T11:33:56.108Z,11.23
2019-03-12T11:36:24.931Z,19.57
2019-03-12T11:38:53.938Z,14.57
2019-03-12T11:41:22.662Z,14.27
2019-03-12T11:43:51.453Z,15.87
2019-03-12T11:46:21.152Z,17.00
2019-03-12T11:48:49.905Z,13.17
2019-03-12T11:51:18.862Z,22.23
2019-03-12T11:53:47.923Z,15.57
2019-03-12T11:56:16.502Z,26.70
2019-03-12T11:58:45.378Z,25.67
2019-03-12T12:01:14.312Z,11.87
2019-03-12T12:03:43.115Z,17.30
2019-03-12T12:06:11.940Z,19.77
2019-03-12T12:08:40.759Z,25.10
2019-03-12T12:11:09.587Z,14.53
2019-03-12T12:13:38.385Z,15.63
2019-03-12T12:16:07.213Z,15.43
2019-03-12T12:18:35.983Z,12.57
2019-03-12T12:21:05.255Z,12.13
2019-03-12T12:23:34.041Z,13.47
2019-03-12T12:26:02.829Z,15.70
2019-03-12T12:28:31.668Z,15.80
2019-03-12T12:31:01.487Z,13.00
2019-03-12T12:33:31.024Z,10.80
2019-03-12T12:35:59.867Z,11.37
2019-03-12T12:38:28.655Z,14.20
2019-03-12T12:40:58.184Z,25.70
2019-03-12T12:43:26.971Z,39.90
2019-03-12T12:45:55.758Z,16.30
2019-03-12T12:48:24.567Z,16.13
2019-03-12T12:51:02.977Z,9.20
2019-03-12T12:53:22.151Z,14.67
2019-03-12T12:55:50.927Z,12.27
2019-03-12T12:58:19.723Z,10.33
2019-03-12T13:00:48.546Z,15.13
2019-03-12T13:03:17.318Z,12.77
2019-03-12T13:05:46.118Z,11.43
2019-03-12T13:08:14.951Z,12.33
2019-03-12T13:10:43.797Z,14.73
2019-03-12T13:13:12.578Z,13.43
2019-03-12T13:15:42.447Z,12.50
2019-03-12T13:18:11.365Z,15.70
2019-03-12T13:20:40.166Z,9.97
2019-03-12T13:23:09.037Z,16.90
2019-03-12T13:25:37.833Z,15.67
2019-03-12T13:28:07.444Z,12.93
2019-03-12T13:30:36.305Z,7.00
2019-03-12T13:33:05.093Z,12.63
2019-03-12T13:35:33.965Z,14.93
2019-03-12T13:38:02.768Z,11.40
2019-03-12T13:40:32.006Z,13.00
2019-03-12T13:43:00.769Z,14.67
2019-03-12T13:45:29.608Z,9.10
2019-03-12T13:48:02.706Z,9.67
2019-03-12T13:50:30.953Z,9.53
2019-03-12T13:52:59.737Z,6.47
2019-03-12T13:55:29.527Z,9.63
2019-03-12T13:57:58.305Z,9.63
2019-03-12T14:00:29.338Z,7.87
2019-03-12T14:02:58.146Z,13.60
2019-03-12T14:05:27.915Z,12.67
2019-03-12T14:07:56.714Z,11.03
2019-03-12T14:10:25.552Z,8.90
2019-03-12T14:12:54.591Z,12.40
2019-03-12T14:15:25.790Z,10.67
2019-03-12T14:17:54.585Z,11.37
2019-03-12T14:20:37.180Z,15.00
2019-03-12T14:23:06.092Z,13.40
2019-03-12T14:25:35.120Z,16.10
2019-03-12T14:28:03.929Z,13.97
2019-03-12T14:30:32.831Z,12.33
2019-03-12T14:33:01.640Z,18.67
2019-03-12T14:35:30.445Z,11.57
2019-03-12T14:37:59.319Z,9.23
2019-03-12T14:40:28.740Z,8.40
2019-03-12T14:42:57.553Z,16.77
2019-03-12T14:45:28.080Z,25.10
2019-03-12T14:47:57.003Z,15.13
2019-03-12T14:50:25.810Z,10.40
2019-03-12T14:52:58.487Z,9.13
2019-03-12T14:55:28.451Z,10.80
2019-03-12T14:58:00.659Z,13.73
2019-03-12T15:00:32.989Z,14.50
2019-03-12T15:03:12.830Z,10.93
2019-03-12T15:05:47.568Z,8.30
2019-03-12T15:08:16.476Z,8.00
2019-03-12T15:10:45.432Z,17.43
2019-03-12T15:13:16.671Z,9.20
2019-03-12T15:15:48.216Z,11.00
2019-03-12T15:18:21.258Z,8.00
2019-03-12T15:20:50.939Z,12.00
2019-03-12T15:23:21.319Z,11.93
2019-03-12T15:29:04.130Z,8.10
2019-03-12T15:31:32.959Z,10.70
2019-03-12T15:34:01.765Z,14.07
2019-03-12T15:36:33.641Z,12.30
2019-03-12T15:39:02.406Z,8.07
2019-03-12T15:41:31.203Z,9.80
2019-03-12T15:43:59.985Z,11.30
2019-03-12T15:46:28.773Z,12.23
2019-03-12T15:48:57.682Z,9.00
2019-03-12T15:51:26.475Z,8.53
2019-03-12T15:53:55.257Z,6.50
2019-03-12T15:56:24.179Z,6.67
2019-03-12T15:58:52.992Z,9.77
2019-03-12T16:01:21.827Z,10.47
2019-03-12T16:03:50.639Z,15.60
2019-03-12T16:06:19.519Z,15.07
2019-03-12T16:08:48.340Z,11.27
2019-03-12T16:11:17.136Z,11.23
2019-03-12T16:13:45.956Z,7.73
2019-03-12T16:16:14.773Z,9.17
2019-03-12T16:18:43.747Z,10.43
2019-03-12T16:21:13.352Z,12.73
2019-03-12T16:23:43.043Z,9.30
2019-03-12T16:26:11.863Z,12.70
2019-03-12T16:28:40.690Z,12.70
2019-03-12T16:31:09.508Z,9.03
2019-03-12T16:33:38.398Z,10.07
2019-03-12T16:36:07.265Z,11.57
2019-03-12T16:38:36.061Z,12.43
2019-03-12T16:41:05.474Z,8.30
2019-03-12T16:43:34.285Z,8.47
2019-03-12T16:46:03.087Z,7.33
2019-03-12T16:48:31.973Z,9.13
2019-03-12T16:51:01.689Z,7.43
2019-03-12T16:53:30.463Z,10.77
2019-03-12T16:55:59.259Z,11.57
2019-03-12T16:58:28.074Z,9.00
2019-03-12T17:00:56.898Z,9.63
2019-03-12T17:03:25.717Z,9.33
2019-03-12T17:05:54.531Z,7.83
2019-03-12T17:08:23.315Z,9.70
2019-03-12T17:11:02.625Z,8.43
2019-03-12T17:13:28.129Z,12.67
2019-03-12T17:15:57.314Z,12.17
2019-03-12T17:18:27.250Z,8.00
2019-03-12T17:20:57.066Z,9.03
2019-03-12T17:23:25.963Z,8.07
2019-03-12T17:25:55.481Z,11.47
2019-03-12T17:28:24.346Z,11.10
2019-03-12T17:30:53.171Z,9.17
2019-03-12T17:33:21.960Z,13.90
2019-03-12T17:35:52.116Z,12.67
2019-03-12T17:38:20.884Z,9.17
2019-03-12T17:40:49.659Z,10.47
2019-03-12T17:43:18.579Z,9.83
2019-03-12T17:45:47.361Z,10.03
2019-03-12T17:48:16.146Z,7.80
2019-03-12T17:50:46.129Z,10.73
2019-03-12T17:53:14.903Z,11.27
2019-03-12T17:55:43.742Z,15.13
2019-03-12T17:58:12.569Z,19.00
2019-03-12T18:00:43.108Z,8.33
2019-03-12T18:03:11.899Z,16.67
2019-03-12T18:05:41.548Z,9.57
2019-03-12T18:08:10.368Z,15.80
2019-03-12T18:10:39.167Z,17.33
2019-03-12T18:13:07.948Z,13.83
2019-03-12T18:15:36.859Z,9.93
2019-03-12T18:18:05.879Z,11.73
2019-03-12T18:20:34.675Z,7.50
2019-03-12T18:23:03.470Z,10.87
2019-03-12T18:25:32.487Z,16.83
2019-03-12T18:28:01.362Z,16.67
2019-03-12T18:30:30.215Z,11.50
2019-03-12T18:32:59.116Z,12.80
2019-03-12T18:35:27.998Z,13.33
2019-03-12T18:37:57.430Z,16.20
2019-03-12T18:40:26.253Z,10.30
2019-03-12T18:42:55.055Z,13.40
2019-03-12T18:45:23.855Z,12.13
2019-03-12T18:47:52.783Z,10.00
2019-03-12T18:50:21.687Z,11.07
2019-03-12T18:52:50.503Z,9.80
2019-03-12T18:55:29.671Z,10.83
2019-03-12T18:57:58.459Z,12.60
2019-03-12T19:00:28.217Z,14.17
2019-03-12T19:02:57.059Z,7.67
2019-03-12T19:05:28.235Z,9.57
2019-03-12T19:07:55.183Z,15.23
2019-03-12T19:10:24.013Z,13.47
2019-03-12T19:12:52.877Z,14.53
2019-03-12T19:15:21.690Z,10.97
2019-03-12T19:17:50.570Z,8.93
2019-03-12T19:20:19.398Z,9.40
2019-03-12T19:22:48.312Z,8.07
2019-03-12T19:25:17.138Z,13.43
2019-03-12T19:27:58.829Z,11.80
2019-03-12T19:30:15.719Z,11.10
2019-03-12T19:32:49.800Z,8.93
2019-03-12T19:35:18.720Z,9.30
2019-03-12T19:37:47.520Z,12.93
2019-03-12T19:40:17.621Z,9.60
2019-03-12T19:42:46.497Z,13.33
2019-03-12T19:45:15.402Z,12.73
2019-03-12T19:47:44.272Z,13.13
2019-03-12T19:50:14.568Z,12.40
2019-03-12T19:52:43.360Z,12.73
2019-03-12T19:55:14.115Z,9.63
2019-03-12T19:57:43.006Z,4.90
2019-03-12T20:00:14.433Z,4.93
2019-03-12T20:02:43.399Z,3.53
2019-03-12T20:05:12.218Z,2.83
2019-03-12T20:07:41.683Z,3.00
2019-03-12T20:10:25.293Z,7.40
2019-03-12T20:15:13.145Z,2.40
2019-03-12T20:19:01.748Z,3.67
2019-03-12T20:21:52.397Z,4.77
2019-03-12T20:26:36.075Z,2.97
2019-03-12T20:29:50.087Z,7.30
2019-03-12T20:32:30.365Z,3.27
2019-03-12T20:35:13.267Z,2.63
2019-03-12T20:40:00.171Z,5.20
2019-03-12T20:44:42.983Z,2.73
2019-03-12T20:47:23.307Z,2.93
2019-03-12T20:50:03.850Z,4.67
2019-03-12T20:55:07.248Z,5.87
2019-03-12T20:57:46.143Z,7.97
2019-03-12T21:00:36.213Z,9.50
2019-03-12T21:03:17.949Z,6.43
2019-03-12T21:06:02.160Z,3.97
2019-03-12T21:10:44.974Z,2.73
2019-03-12T21:14:01.286Z,8.67
2019-03-12T21:16:40.193Z,5.93
2019-03-12T21:21:23.116Z,2.53
2019-03-12T21:24:03.840Z,4.40
2019-03-12T21:26:53.544Z,5.47
2019-03-12T21:29:45.634Z,5.57
2019-03-12T21:32:15.220Z,9.73
2019-03-12T21:34:44.113Z,7.20
2019-03-12T21:37:13.398Z,3.10
2019-03-12T21:39:54.494Z,8.37
2019-03-12T21:42:10.965Z,2.93
2019-03-12T21:44:39.801Z,7.63
2019-03-12T21:47:08.588Z,4.93
2019-03-12T21:49:37.369Z,8.87
2019-03-12T21:52:07.903Z,11.93
2019-03-12T21:54:36.983Z,9.30
2019-03-12T21:57:05.795Z,9.27
2019-03-12T21:59:34.589Z,7.47
2019-03-12T22:02:03.472Z,5.63
2019-03-12T22:04:32.278Z,6.63
2019-03-12T22:07:01.268Z,5.23
2019-03-12T22:09:30.018Z,9.63
2019-03-12T22:11:58.836Z,11.70
2019-03-12T22:14:27.637Z,9.20
2019-03-12T22:16:59.127Z,7.97
2019-03-12T22:19:27.956Z,15.83
2019-03-12T22:22:03.052Z,10.83
2019-03-12T22:24:31.939Z,9.33
2019-03-12T22:27:00.728Z,10.73
2019-03-12T22:29:29.520Z,9.93
2019-03-12T22:31:58.316Z,7.17
2019-03-12T22:34:30.014Z,7.47
2019-03-12T22:36:56.004Z,9.93
2019-03-12T22:39:24.793Z,9.00
2019-03-12T22:41:53.698Z,16.83
2019-03-12T22:44:22.406Z,13.53
2019-03-12T22:46:51.173Z,8.17
2019-03-12T22:49:20.032Z,7.20
2019-03-12T22:51:48.768Z,8.53
2019-03-12T22:54:17.545Z,24.23
2019-03-12T22:56:46.313Z,12.60
2019-03-12T22:59:15.108Z,13.30
2019-03-12T23:01:49.504Z,10.73
2019-03-12T23:04:23.989Z,11.87
2019-03-12T23:06:58.301Z,15.53
2019-03-12T23:09:32.847Z,13.07
2019-03-12T23:12:01.632Z,14.20
2019-03-12T23:14:30.415Z,11.57
2019-03-12T23:16:59.259Z,5.80
2019-03-12T23:19:28.049Z,10.67
2019-03-12T23:21:56.964Z,16.00
2019-03-12T23:24:25.822Z,13.23
2019-03-12T23:26:54.615Z,13.87
2019-03-12T23:29:23.387Z,11.93
2019-03-12T23:31:52.176Z,16.53
2019-03-12T23:34:20.970Z,13.77
2019-03-12T23:36:49.791Z,16.37
2019-03-12T23:39:18.667Z,13.73
2019-03-12T23:41:48.003Z,21.43
2019-03-12T23:44:16.801Z,12.33
2019-03-12T23:46:45.573Z,15.33
2019-03-12T23:49:14.355Z,13.90
2019-03-12T23:51:43.159Z,9.17
2019-03-12T23:54:11.945Z,13.60
2019-03-12T23:56:40.797Z,12.30
2019-03-12T23:59:09.612Z,21.10
